Time;durP1;ratioP1;P1;durP2;ratioP2;P2;SDS_P1;SDS_P2;PMS_P1;PMS_P2;Temp;Humidity;BMP_temperature;BMP_pressure;BME280_temperature;BME280_humidity;BME280_pressure;Samples;Min_cycle;Max_cycle;Signal;HPM_P1;HPM_P2
2021/03/23 00:00:18;;;;;;;0.45;0.45;;;7.60;99.90;;;;;;4415140;32;20066;-54
2021/03/23 00:02:50;;;;;;;0.40;0.40;;;7.60;99.90;;;;;;4415560;32;20069;-52
2021/03/23 00:05:16;;;;;;;0.30;0.30;;;7.60;99.90;;;;;;4414972;32;20412;-51
2021/03/23 00:07:42;;;;;;;2.12;1.37;;;7.60;99.90;;;;;;4389051;32;20073;-52
2021/03/23 00:10:10;;;;;;;1.67;0.75;;;7.50;99.90;;;;;;4406389;32;20137;-52
2021/03/23 00:12:36;;;;;;;0.45;0.45;;;7.40;99.90;;;;;;4374059;32;20506;-57
2021/03/23 00:15:03;;;;;;;0.30;0.30;;;7.40;99.90;;;;;;4400236;32;20074;-54
2021/03/23 00:17:29;;;;;;;0.40;0.40;;;7.30;99.90;;;;;;4387361;32;20074;-52
2021/03/23 00:19:54;;;;;;;0.70;0.70;;;7.30;99.90;;;;;;4386821;32;20127;-52
2021/03/23 00:22:20;;;;;;;0.45;0.45;;;7.20;99.90;;;;;;4399478;32;20126;-55
2021/03/23 00:24:45;;;;;;;0.40;0.40;;;7.20;99.90;;;;;;4399725;32;20451;-52
2021/03/23 00:27:11;;;;;;;7.60;0.50;;;7.20;99.90;;;;;;4399636;32;20070;-56
2021/03/23 00:29:36;;;;;;;0.57;0.57;;;7.20;99.90;;;;;;4399045;32;20413;-53
2021/03/23 00:32:05;;;;;;;0.57;0.57;;;7.20;99.90;;;;;;4385249;32;20066;-54
2021/03/23 00:34:31;;;;;;;0.32;0.32;;;7.20;99.90;;;;;;4399977;32;20127;-53
2021/03/23 00:37:00;;;;;;;0.47;0.47;;;7.20;99.90;;;;;;4399343;32;20062;-54
2021/03/23 00:39:26;;;;;;;0.40;0.40;;;7.10;99.90;;;;;;4399391;32;20471;-56
2021/03/23 00:41:52;;;;;;;0.60;0.60;;;7.20;99.90;;;;;;4386631;32;20062;-57
2021/03/23 00:44:17;;;;;;;0.75;0.75;;;7.20;99.90;;;;;;4385414;32;20061;-53
2021/03/23 00:46:43;;;;;;;0.20;0.20;;;7.20;99.90;;;;;;4398737;32;20492;-56
2021/03/23 00:49:08;;;;;;;0.30;0.30;;;7.10;99.90;;;;;;4399375;32;20101;-55
2021/03/23 00:51:34;;;;;;;1.35;1.12;;;7.00;99.90;;;;;;4385919;32;20441;-55
2021/03/23 00:53:59;;;;;;;9.63;0.82;;;7.00;99.90;;;;;;4399366;32;20113;-51
2021/03/23 00:56:25;;;;;;;0.30;0.30;;;7.00;99.90;;;;;;4399212;32;20074;-54
2021/03/23 00:58:50;;;;;;;2.37;1.42;;;7.00;99.90;;;;;;4399841;32;20078;-56
2021/03/23 01:01:16;;;;;;;0.32;0.32;;;6.90;99.90;;;;;;4398055;32;20082;-54
2021/03/23 01:03:42;;;;;;;0.47;0.47;;;6.90;99.90;;;;;;4398938;32;20097;-52
2021/03/23 01:06:07;;;;;;;0.40;0.40;;;6.90;99.90;;;;;;4398888;32;20073;-54
2021/03/23 01:08:33;;;;;;;0.62;0.62;;;6.80;99.90;;;;;;4384984;32;20061;-57
2021/03/23 01:10:58;;;;;;;0.85;0.75;;;6.80;99.90;;;;;;4413393;32;20120;-54
2021/03/23 01:13:24;;;;;;;0.50;0.50;;;6.80;99.90;;;;;;4400549;32;20470;-56
2021/03/23 01:15:49;;;;;;;51.00;0.90;;;6.80;99.90;;;;;;4415021;32;20073;-57
2021/03/23 01:18:15;;;;;;;3.20;0.85;;;6.80;99.90;;;;;;4414521;32;20066;-57
2021/03/23 01:20:40;;;;;;;0.30;0.30;;;6.90;99.90;;;;;;4414710;32;20129;-57
2021/03/23 01:23:06;;;;;;;3.83;0.80;;;6.80;99.90;;;;;;4413675;32;20491;-55
2021/03/23 01:25:31;;;;;;;0.40;0.40;;;6.80;99.90;;;;;;4414884;32;20078;-57
2021/03/23 01:27:57;;;;;;;2.60;1.62;;;6.70;99.90;;;;;;4413779;32;20085;-57
2021/03/23 01:30:25;;;;;;;0.60;0.60;;;6.70;99.90;;;;;;4401155;32;20062;-52
2021/03/23 01:32:51;;;;;;;1.85;1.20;;;6.70;99.90;;;;;;4387114;32;20073;-57
2021/03/23 01:35:17;;;;;;;5.70;1.48;;;6.70;99.90;;;;;;4400191;32;20061;-53
2021/03/23 01:37:43;;;;;;;1.25;0.62;;;6.80;99.90;;;;;;4413378;32;20131;-53
2021/03/23 01:40:10;;;;;;;0.60;0.60;;;6.90;99.90;;;;;;4399997;32;20077;-52
2021/03/23 01:42:39;;;;;;;0.40;0.40;;;6.80;99.90;;;;;;4412934;32;20443;-53
2021/03/23 01:45:20;;;;;;;0.40;0.40;;;6.80;99.90;;;;;;4375982;32;20113;-54
2021/03/23 01:47:45;;;;;;;0.45;0.45;;;6.80;99.90;;;;;;4387271;32;20523;-55
2021/03/23 01:50:11;;;;;;;0.35;0.35;;;6.80;99.90;;;;;;4401117;32;20066;-52
2021/03/23 01:52:39;;;;;;;0.40;0.40;;;6.80;99.90;;;;;;4412471;32;20078;-52
2021/03/23 01:55:08;;;;;;;0.50;0.50;;;6.80;99.90;;;;;;4414888;32;20057;-54
2021/03/23 01:57:36;;;;;;;4.22;1.25;;;6.80;99.90;;;;;;4399137;32;20069;-56
2021/03/23 02:00:05;;;;;;;4.28;0.73;;;6.80;99.90;;;;;;4400691;32;20425;-54
2021/03/23 02:02:31;;;;;;;0.30;0.30;;;6.70;99.90;;;;;;4388558;32;20438;-55
2021/03/23 02:04:56;;;;;;;0.82;0.75;;;6.80;99.90;;;;;;4400693;32;20065;-55
2021/03/23 02:07:22;;;;;;;0.40;0.40;;;6.70;99.90;;;;;;4412946;32;20093;-55
2021/03/23 02:09:52;;;;;;;0.93;0.55;;;6.80;99.90;;;;;;4399427;32;20073;-57
2021/03/23 02:12:24;;;;;;;0.47;0.47;;;6.80;99.90;;;;;;4400293;32;20400;-56
2021/03/23 02:14:49;;;;;;;0.50;0.50;;;6.70;99.90;;;;;;4413938;32;20448;-57
2021/03/23 02:17:21;;;;;;;0.70;0.62;;;6.80;99.90;;;;;;4413986;32;20065;-53
2021/03/23 02:19:49;;;;;;;0.93;0.43;;;6.80;99.90;;;;;;4387569;32;20424;-52
2021/03/23 02:22:26;;;;;;;0.35;0.35;;;6.80;99.90;;;;;;4387050;32;20532;-54
2021/03/23 02:24:52;;;;;;;0.55;0.55;;;6.80;99.90;;;;;;4387069;32;20087;-51
2021/03/23 02:27:19;;;;;;;0.98;0.70;;;6.70;99.90;;;;;;4398712;32;20507;-55
2021/03/23 02:29:46;;;;;;;0.40;0.40;;;6.70;99.90;;;;;;4400049;32;20072;-53
2021/03/23 02:32:11;;;;;;;0.57;0.57;;;6.70;99.90;;;;;;4414269;32;20069;-52
2021/03/23 02:34:37;;;;;;;0.47;0.47;;;6.60;99.90;;;;;;4399426;32;20425;-52
2021/03/23 02:37:03;;;;;;;0.55;0.52;;;6.60;99.90;;;;;;4400892;32;20472;-54
2021/03/23 02:39:32;;;;;;;0.40;0.40;;;6.50;99.90;;;;;;4386459;32;20081;-56
2021/03/23 02:41:58;;;;;;;0.43;0.43;;;6.50;99.90;;;;;;4387187;32;20086;-53
2021/03/23 02:44:25;;;;;;;0.57;0.57;;;6.60;99.90;;;;;;4399990;32;20066;-53
2021/03/23 02:46:51;;;;;;;0.35;0.35;;;6.60;99.90;;;;;;4399522;32;20131;-56
2021/03/23 02:49:17;;;;;;;1.65;1.35;;;6.70;99.90;;;;;;4398971;32;20431;-54
2021/03/23 02:51:42;;;;;;;0.40;0.40;;;6.70;99.90;;;;;;4414127;32;20061;-53
2021/03/23 02:54:08;;;;;;;0.40;0.40;;;6.70;99.90;;;;;;4413302;32;20082;-55
2021/03/23 02:56:34;;;;;;;0.52;0.52;;;6.60;99.90;;;;;;4415519;32;20123;-55
2021/03/23 02:59:00;;;;;;;0.43;0.43;;;6.60;99.90;;;;;;4415242;32;20436;-53
2021/03/23 03:01:25;;;;;;;0.30;0.30;;;6.50;99.90;;;;;;4402231;32;20061;-54
2021/03/23 03:03:51;;;;;;;0.40;0.40;;;6.50;99.90;;;;;;4416827;32;20074;-57
2021/03/23 03:06:16;;;;;;;0.30;0.30;;;6.50;99.90;;;;;;4415234;32;20573;-52
2021/03/23 03:08:42;;;;;;;0.30;0.30;;;6.50;99.90;;;;;;4414659;32;20082;-54
2021/03/23 03:11:08;;;;;;;0.40;0.40;;;6.50;99.90;;;;;;4387049;32;20082;-52
2021/03/23 03:13:35;;;;;;;0.40;0.40;;;6.40;99.90;;;;;;4386152;32;20067;-51
2021/03/23 03:16:01;;;;;;;1.40;0.43;;;6.40;99.90;;;;;;4374175;32;20059;-54
2021/03/23 03:18:27;;;;;;;0.50;0.50;;;6.40;99.90;;;;;;4387692;32;20077;-54
2021/03/23 03:20:55;;;;;;;0.20;0.20;;;6.40;99.90;;;;;;4386842;32;20235;-52
2021/03/23 03:23:21;;;;;;;0.40;0.40;;;6.50;99.90;;;;;;4387846;32;20066;-52
2021/03/23 03:25:48;;;;;;;0.32;0.32;;;6.40;99.90;;;;;;4400235;32;20074;-57
2021/03/23 03:28:14;;;;;;;1.85;1.52;;;6.40;99.90;;;;;;4387414;32;20483;-56
2021/03/23 03:30:40;;;;;;;1.48;0.60;;;6.40;99.90;;;;;;4399734;32;20086;-57
2021/03/23 03:33:08;;;;;;;0.30;0.30;;;6.40;99.90;;;;;;4400190;32;20078;-56
2021/03/23 03:35:36;;;;;;;1.23;0.98;;;6.30;99.90;;;;;;4374908;32;20114;-52
2021/03/23 03:38:03;;;;;;;0.40;0.40;;;6.20;99.90;;;;;;4374527;32;20065;-57
2021/03/23 03:40:36;;;;;;;0.30;0.30;;;6.20;99.90;;;;;;4399895;32;20244;-53
2021/03/23 03:43:03;;;;;;;1.62;0.70;;;6.30;99.90;;;;;;4399632;32;20494;-52
2021/03/23 03:45:28;;;;;;;0.35;0.35;;;6.20;99.90;;;;;;4400055;32;20129;-56
2021/03/23 03:47:56;;;;;;;0.80;0.60;;;6.30;99.90;;;;;;4387133;32;20115;-53
2021/03/23 03:50:24;;;;;;;0.93;0.90;;;6.30;99.90;;;;;;4399261;32;20104;-52
2021/03/23 03:52:50;;;;;;;0.30;0.30;;;6.30;99.90;;;;;;4399382;32;20059;-55
2021/03/23 03:55:19;;;;;;;0.35;0.35;;;6.20;99.90;;;;;;4386813;32;20061;-57
2021/03/23 03:57:45;;;;;;;0.40;0.40;;;6.20;99.90;;;;;;4386113;32;20066;-54
2021/03/23 04:00:12;;;;;;;0.93;0.45;;;6.20;99.90;;;;;;4399806;32;20078;-55
2021/03/23 04:02:37;;;;;;;22.27;0.73;;;6.30;99.90;;;;;;4386172;32;20074;-52
2021/03/23 04:05:05;;;;;;;0.32;0.30;;;6.30;99.90;;;;;;4386886;32;20075;-52
2021/03/23 04:07:31;;;;;;;0.65;0.65;;;6.30;99.90;;;;;;4400344;32;20484;-53
2021/03/23 04:09:57;;;;;;;0.70;0.62;;;6.30;99.90;;;;;;4381648;32;20128;-54
2021/03/23 04:12:22;;;;;;;0.40;0.40;;;6.30;99.90;;;;;;4415530;32;20507;-55
2021/03/23 04:14:48;;;;;;;0.37;0.37;;;6.30;99.90;;;;;;4415615;32;20090;-56
2021/03/23 04:17:13;;;;;;;0.20;0.20;;;6.30;99.90;;;;;;4415878;32;20116;-53
2021/03/23 04:19:39;;;;;;;0.40;0.40;;;6.30;99.90;;;;;;4415994;32;20128;-53
2021/03/23 04:22:05;;;;;;;0.30;0.30;;;6.20;99.90;;;;;;4415732;32;20065;-52
2021/03/23 04:24:30;;;;;;;0.30;0.30;;;6.30;99.90;;;;;;4415799;32;20132;-57
2021/03/23 04:26:56;;;;;;;0.25;0.25;;;6.30;99.90;;;;;;4413376;32;20500;-57
2021/03/23 04:29:21;;;;;;;0.70;0.70;;;6.20;99.90;;;;;;4414228;32;20066;-56
2021/03/23 04:31:47;;;;;;;0.30;0.30;;;6.20;99.90;;;;;;4415043;32;20511;-53
2021/03/23 04:34:14;;;;;;;0.40;0.40;;;6.20;99.90;;;;;;4415574;32;20574;-55
2021/03/23 04:36:41;;;;;;;0.37;0.37;;;6.20;99.90;;;;;;4402220;32;20054;-54
2021/03/23 04:39:09;;;;;;;0.80;0.80;;;6.20;99.90;;;;;;4388692;32;20073;-52
2021/03/23 04:41:36;;;;;;;0.40;0.40;;;6.10;99.90;;;;;;4389096;32;20361;-52
2021/03/23 04:44:02;;;;;;;0.20;0.20;;;6.20;99.90;;;;;;4401572;32;20074;-54
2021/03/23 04:46:28;;;;;;;0.40;0.40;;;6.20;99.90;;;;;;4388307;32;20074;-56
2021/03/23 04:48:55;;;;;;;0.30;0.30;;;6.10;99.90;;;;;;4402162;32;20069;-56
2021/03/23 04:51:24;;;;;;;0.30;0.30;;;6.10;99.90;;;;;;4388921;32;20561;-52
2021/03/23 04:53:50;;;;;;;1.30;1.20;;;6.20;99.90;;;;;;4400683;32;20449;-53
2021/03/23 04:56:31;;;;;;;0.30;0.30;;;6.10;99.90;;;;;;4413833;32;20466;-57
2021/03/23 04:58:57;;;;;;;0.40;0.40;;;6.20;99.90;;;;;;4388826;32;20065;-56
2021/03/23 05:01:24;;;;;;;0.20;0.20;;;6.10;99.90;;;;;;4415080;32;20534;-57
2021/03/23 05:03:55;;;;;;;0.30;0.30;;;6.20;99.90;;;;;;4415633;32;20136;-56
2021/03/23 05:06:21;;;;;;;0.30;0.30;;;6.10;99.90;;;;;;4414439;32;20307;-53
2021/03/23 05:08:46;;;;;;;0.30;0.30;;;6.20;99.90;;;;;;4411861;32;20542;-54
2021/03/23 05:11:14;;;;;;;0.40;0.40;;;6.10;99.90;;;;;;4398365;32;20101;-55
2021/03/23 05:13:41;;;;;;;0.50;0.50;;;6.10;99.90;;;;;;4392676;32;20472;-55
2021/03/23 05:16:06;;;;;;;0.30;0.30;;;6.10;99.90;;;;;;4384633;32;20135;-53
2021/03/23 05:18:32;;;;;;;0.40;0.40;;;6.10;99.90;;;;;;4398303;32;20066;-55
2021/03/23 05:20:57;;;;;;;0.32;0.32;;;6.20;99.90;;;;;;4383706;32;20086;-57
2021/03/23 05:23:24;;;;;;;0.40;0.40;;;6.30;99.90;;;;;;4394556;32;20542;-54
2021/03/23 05:25:51;;;;;;;0.30;0.30;;;6.20;99.90;;;;;;4411159;32;20090;-56
2021/03/23 05:28:16;;;;;;;0.30;0.30;;;6.20;99.90;;;;;;4392484;32;20066;-56
2021/03/23 05:30:42;;;;;;;0.32;0.32;;;6.10;99.90;;;;;;4399846;32;20058;-53
2021/03/23 05:33:10;;;;;;;0.43;0.43;;;6.20;99.90;;;;;;4385402;32;20078;-53
2021/03/23 05:35:36;;;;;;;0.40;0.40;;;6.30;99.90;;;;;;4385321;32;20074;-51
2021/03/23 05:38:02;;;;;;;0.30;0.30;;;6.20;99.90;;;;;;4373372;32;20066;-56
2021/03/23 05:40:34;;;;;;;0.40;0.40;;;6.20;99.90;;;;;;4384716;32;20065;-54
2021/03/23 05:43:24;;;;;;;0.30;0.30;;;6.20;99.90;;;;;;4398493;32;20085;-57
2021/03/23 05:45:55;;;;;;;0.30;0.30;;;6.20;99.90;;;;;;4391575;32;20081;-52
2021/03/23 05:48:23;;;;;;;0.40;0.40;;;6.20;99.90;;;;;;4413873;32;20121;-54
2021/03/23 05:51:02;;;;;;;0.35;0.35;;;6.10;99.90;;;;;;4414198;32;20073;-55
2021/03/23 05:53:40;;;;;;;0.40;0.40;;;6.10;99.90;;;;;;4414559;32;20073;-53
2021/03/23 05:56:07;;;;;;;0.50;0.50;;;6.00;99.90;;;;;;4399945;32;20463;-50
2021/03/23 05:58:36;;;;;;;0.30;0.30;;;6.00;99.90;;;;;;4400431;32;20285;-56
2021/03/23 06:01:06;;;;;;;0.40;0.40;;;6.10;99.90;;;;;;4396727;32;20427;-52
2021/03/23 06:03:40;;;;;;;0.20;0.20;;;6.10;99.90;;;;;;4399740;32;20070;-55
2021/03/23 06:06:34;;;;;;;1.52;0.60;;;6.10;99.90;;;;;;4413401;32;20143;-51
2021/03/23 06:09:00;;;;;;;0.50;0.50;;;6.00;99.90;;;;;;4388084;32;20058;-54
2021/03/23 06:11:50;;;;;;;1.60;0.62;;;6.00;99.90;;;;;;4408319;32;20118;-55
2021/03/23 06:14:23;;;;;;;0.50;0.50;;;6.00;99.90;;;;;;4388806;32;20109;-54
2021/03/23 06:17:06;;;;;;;1.40;1.08;;;6.00;99.90;;;;;;4388995;32;20403;-55
2021/03/23 06:19:34;;;;;;;0.50;0.50;;;6.20;99.90;;;;;;4397687;32;20073;-52
2021/03/23 06:22:18;;;;;;;0.40;0.40;;;6.20;99.90;;;;;;4410348;32;20078;-56
2021/03/23 06:25:12;;;;;;;0.30;0.30;;;6.20;99.90;;;;;;4411493;32;20087;-53
2021/03/23 06:27:47;;;;;;;0.40;0.40;;;6.30;99.90;;;;;;4381390;32;20642;-55
2021/03/23 06:30:37;;;;;;;0.62;0.47;;;6.20;99.90;;;;;;4366835;32;20383;-56
2021/03/23 06:33:03;;;;;;;0.60;0.60;;;6.20;99.90;;;;;;4372131;32;20078;-55
2021/03/23 06:35:40;;;;;;;0.22;0.22;;;6.30;99.90;;;;;;4400671;32;20090;-55
2021/03/23 06:38:14;;;;;;;0.40;0.40;;;6.30;99.90;;;;;;4390727;32;20434;-54
2021/03/23 06:40:59;;;;;;;0.30;0.30;;;6.20;99.90;;;;;;4380662;32;20077;-54
2021/03/23 06:43:29;;;;;;;0.30;0.30;;;6.30;99.90;;;;;;4391944;32;20106;-56
2021/03/23 06:46:05;;;;;;;0.30;0.30;;;6.30;99.90;;;;;;4391199;32;20284;-56
2021/03/23 06:48:32;;;;;;;0.40;0.40;;;6.30;99.90;;;;;;4393195;32;20074;-53
2021/03/23 06:51:16;;;;;;;0.30;0.30;;;6.30;99.90;;;;;;4390008;32;20062;-55
2021/03/23 06:53:42;;;;;;;0.30;0.30;;;6.40;99.90;;;;;;4389943;32;20134;-56
2021/03/23 06:56:28;;;;;;;0.40;0.40;;;6.40;99.90;;;;;;4402348;32;20102;-56
2021/03/23 06:59:15;;;;;;;0.30;0.30;;;6.40;99.90;;;;;;4382695;32;20046;-52
2021/03/23 07:01:46;;;;;;;0.60;0.60;;;6.50;99.90;;;;;;4390748;32;20053;-52
2021/03/23 07:04:16;;;;;;;;;;;6.40;99.90;;;;;;4388904;32;20128;-51
2021/03/23 07:06:42;;;;;;;0.30;0.30;;;6.40;99.90;;;;;;4401544;32;19959;-52
2021/03/23 07:09:20;;;;;;;0.30;0.30;;;6.40;99.90;;;;;;4393810;32;20070;-53
2021/03/23 07:12:03;;;;;;;0.30;0.30;;;6.40;99.90;;;;;;4404906;32;20132;-55
2021/03/23 07:14:39;;;;;;;1.98;0.98;;;6.30;99.90;;;;;;4391259;32;20559;-55
2021/03/23 07:17:18;;;;;;;0.40;0.40;;;6.30;99.90;;;;;;4408771;32;20085;-55
2021/03/23 07:19:46;;;;;;;0.40;0.40;;;6.40;99.90;;;;;;4403273;32;20125;-56
2021/03/23 07:22:18;;;;;;;0.90;0.40;;;6.40;99.90;;;;;;4388201;32;20432;-57
2021/03/23 07:24:55;;;;;;;0.43;0.37;;;6.50;99.90;;;;;;4407132;32;20076;-56
2021/03/23 07:27:23;;;;;;;0.50;0.50;;;6.50;99.90;;;;;;4406536;32;20448;-55
2021/03/23 07:29:48;;;;;;;0.47;0.35;;;6.40;99.90;;;;;;4385192;32;20077;-53
2021/03/23 07:32:19;;;;;;;0.40;0.40;;;6.40;99.90;;;;;;4411618;32;20093;-56
2021/03/23 07:34:52;;;;;;;;;;;6.50;99.90;;;;;;4410362;32;20066;-51
2021/03/23 07:37:23;;;;;;;0.30;0.30;;;6.50;99.90;;;;;;4394195;32;20645;-57
2021/03/23 07:39:54;;;;;;;;;;;6.50;99.90;;;;;;4393137;32;20061;-53
2021/03/23 07:42:35;;;;;;;0.35;0.35;;;6.50;99.90;;;;;;4411720;32;19967;-56
2021/03/23 07:45:20;;;;;;;0.50;0.50;;;6.60;99.90;;;;;;4411026;32;20078;-54
2021/03/23 07:47:55;;;;;;;0.40;0.40;;;6.50;99.90;;;;;;4393426;32;20156;-52
2021/03/23 07:50:28;;;;;;;0.37;0.37;;;6.50;99.90;;;;;;4396978;32;20448;-55
2021/03/23 07:52:59;;;;;;;0.37;0.37;;;6.50;99.90;;;;;;4396459;32;20625;-57
2021/03/23 07:55:27;;;;;;;0.40;0.40;;;6.60;99.90;;;;;;4394184;32;20074;-55
2021/03/23 07:58:14;;;;;;;0.62;0.62;;;6.70;99.90;;;;;;4407716;32;20065;-55
2021/03/23 08:01:20;;;;;;;0.30;0.30;;;6.70;99.90;;;;;;4397985;32;20145;-54
2021/03/23 08:04:15;;;;;;;0.30;0.30;;;6.70;99.90;;;;;;4384654;32;20074;-54
2021/03/23 08:07:03;;;;;;;0.60;0.60;;;6.70;99.90;;;;;;4380628;32;20086;-55
2021/03/23 08:10:01;;;;;;;0.40;0.40;;;6.70;99.90;;;;;;4395426;32;20073;-57
2021/03/23 08:12:56;;;;;;;0.40;0.40;;;6.80;99.90;;;;;;4396488;32;21022;-56
2021/03/23 08:15:38;;;;;;;0.40;0.40;;;6.70;99.90;;;;;;4384840;32;20093;-57
2021/03/23 08:18:37;;;;;;;0.50;0.50;;;6.70;99.90;;;;;;4405020;32;20531;-55
2021/03/23 08:21:24;;;;;;;0.30;0.30;;;6.80;99.90;;;;;;4395556;32;20078;-56
2021/03/23 08:24:05;;;;;;;0.30;0.30;;;6.90;99.90;;;;;;4403713;32;20070;-55
2021/03/23 08:27:03;;;;;;;0.40;0.40;;;6.80;99.90;;;;;;4402058;32;20073;-56
2021/03/23 08:29:40;;;;;;;8.27;0.57;;;6.80;99.90;;;;;;4392285;32;20108;-54
2021/03/23 08:32:15;;;;;;;0.28;0.28;;;6.70;99.90;;;;;;4387376;32;20317;-56
2021/03/23 08:35:02;;;;;;;0.30;0.30;;;6.70;99.90;;;;;;4406982;32;20073;-57
2021/03/23 08:38:09;;;;;;;0.50;0.50;;;6.70;99.90;;;;;;4395867;32;20082;-56
2021/03/23 08:40:44;;;;;;;0.40;0.40;;;6.80;99.90;;;;;;4386386;32;20142;-56
2021/03/23 08:43:15;;;;;;;0.35;0.35;;;6.70;99.90;;;;;;4397209;32;20139;-53
2021/03/23 08:45:46;;;;;;;0.30;0.30;;;6.80;99.90;;;;;;4403710;32;20086;-55
2021/03/23 08:48:20;;;;;;;;;;;6.80;99.90;;;;;;4387977;32;20062;-55
2021/03/23 08:50:46;;;;;;;0.40;0.40;;;6.80;99.90;;;;;;4406159;32;19984;-55
2021/03/23 08:53:34;;;;;;;0.30;0.30;;;6.70;99.90;;;;;;4406125;32;20057;-54
2021/03/23 08:56:02;;;;;;;0.30;0.30;;;6.70;99.90;;;;;;4396328;32;20082;-56
2021/03/23 08:58:49;;;;;;;1.08;0.80;;;6.80;99.90;;;;;;4390591;32;20094;-54
2021/03/23 09:01:40;;;;;;;0.40;0.40;;;6.80;99.90;;;;;;4396262;32;20094;-56
2021/03/23 09:04:11;;;;;;;0.77;0.50;;;6.80;99.90;;;;;;4393920;32;20437;-56
2021/03/23 09:06:59;;;;;;;0.28;0.28;;;6.90;99.90;;;;;;4406107;32;20061;-54
2021/03/23 09:09:28;;;;;;;0.30;0.30;;;6.80;99.90;;;;;;4386165;32;20102;-55
2021/03/23 09:12:22;;;;;;;0.37;0.37;;;6.90;99.90;;;;;;4405555;32;20061;-52
2021/03/23 09:15:10;;;;;;;0.35;0.35;;;6.80;99.90;;;;;;4415433;32;20089;-52
2021/03/23 09:18:00;;;;;;;0.30;0.30;;;7.00;99.90;;;;;;4391264;32;20058;-55
2021/03/23 09:20:36;;;;;;;0.55;0.55;;;7.00;99.90;;;;;;4394253;32;20061;-55
2021/03/23 09:23:21;;;;;;;0.35;0.35;;;7.10;99.90;;;;;;4398583;32;20521;-51
2021/03/23 09:25:49;;;;;;;0.30;0.30;;;7.20;99.90;;;;;;4396496;32;20405;-52
2021/03/23 09:28:34;;;;;;;0.30;0.30;;;7.20;99.90;;;;;;4397337;32;20085;-56
2021/03/23 09:39:46;;;;;;;0.40;0.40;;;7.20;99.90;;;;;;4449676;32;87434;-76
2021/03/23 09:42:25;;;;;;;0.40;0.40;;;7.30;99.90;;;;;;4454740;32;20171;-78
2021/03/23 09:45:15;;;;;;;0.50;0.50;;;7.20;99.90;;;;;;4454444;32;20165;-80
2021/03/23 09:48:00;;;;;;;0.47;0.47;;;7.30;99.90;;;;;;4452232;32;20443;-80
2021/03/23 09:50:36;;;;;;;5.93;1.20;;;7.20;99.90;;;;;;4456813;32;20529;-80
2021/03/23 09:53:11;;;;;;;0.35;0.35;;;7.30;99.90;;;;;;4450750;32;20533;-79
2021/03/23 09:55:40;;;;;;;0.52;0.52;;;7.30;99.90;;;;;;4445797;32;20056;-79
2021/03/23 09:58:11;;;;;;;0.40;0.40;;;7.30;99.90;;;;;;4452302;32;20069;-79
2021/03/23 10:00:37;;;;;;;0.40;0.40;;;7.40;99.90;;;;;;4448445;32;20097;-79
2021/03/23 10:03:18;;;;;;;0.40;0.40;;;7.50;99.90;;;;;;4450465;32;20583;-78
2021/03/23 10:05:58;;;;;;;0.40;0.40;;;7.50;99.90;;;;;;4450476;32;20521;-78
2021/03/23 10:08:23;;;;;;;1.65;0.50;;;7.50;99.90;;;;;;4455225;32;20107;-79
2021/03/23 10:10:49;;;;;;;0.50;0.50;;;7.50;99.90;;;;;;4453615;32;20092;-79
2021/03/23 10:13:21;;;;;;;2.22;0.50;;;7.50;99.90;;;;;;4449069;32;20068;-80
2021/03/23 10:15:54;;;;;;;1.75;0.73;;;7.60;99.90;;;;;;4455843;32;20096;-80
2021/03/23 10:18:24;;;;;;;0.43;0.43;;;7.70;99.90;;;;;;4450996;32;20426;-80
2021/03/23 10:21:12;;;;;;;0.40;0.40;;;7.70;99.90;;;;;;4448397;32;20072;-80
2021/03/23 10:23:57;;;;;;;0.45;0.45;;;7.80;99.90;;;;;;4453205;32;20057;-80
2021/03/23 10:26:25;;;;;;;0.50;0.50;;;7.90;99.90;;;;;;4447848;32;20097;-80
2021/03/23 10:28:55;;;;;;;0.37;0.37;;;7.90;99.90;;;;;;4452660;32;20057;-79
2021/03/23 10:31:34;;;;;;;0.40;0.40;;;7.90;99.90;;;;;;4450021;32;20089;-79
2021/03/23 10:34:21;;;;;;;0.30;0.30;;;7.90;99.90;;;;;;4446861;32;20207;-79
2021/03/23 10:36:54;;;;;;;0.40;0.40;;;7.90;99.90;;;;;;4433153;32;20204;-78
2021/03/23 10:39:30;;;;;;;0.32;0.32;;;7.90;99.90;;;;;;4435431;32;20220;-76
2021/03/23 10:41:56;;;;;;;0.40;0.40;;;8.00;99.90;;;;;;4434404;32;20522;-77
2021/03/23 10:44:26;;;;;;;0.40;0.40;;;8.20;99.90;;;;;;4442306;32;20168;-77
2021/03/23 10:46:53;;;;;;;0.40;0.40;;;8.20;99.90;;;;;;4440053;32;20081;-76
2021/03/23 10:49:26;;;;;;;0.55;0.55;;;8.10;99.90;;;;;;4438759;32;20132;-78
2021/03/23 10:51:56;;;;;;;0.30;0.30;;;8.10;99.90;;;;;;4425172;32;20121;-78
2021/03/23 10:54:26;;;;;;;0.40;0.40;;;8.10;99.90;;;;;;4423080;32;20502;-77
2021/03/23 10:56:57;;;;;;;0.40;0.40;;;8.30;99.90;;;;;;4432874;32;20159;-79
2021/03/23 10:59:27;;;;;;;0.47;0.47;;;8.50;99.90;;;;;;4427056;32;20073;-78
2021/03/23 11:02:16;;;;;;;0.40;0.40;;;8.50;99.90;;;;;;4429942;32;20099;-78
2021/03/23 11:05:10;;;;;;;2.72;0.88;;;8.50;99.90;;;;;;4425826;32;20104;-78
2021/03/23 11:07:55;;;;;;;6.32;2.25;;;8.60;99.90;;;;;;4427308;32;20058;-78
2021/03/23 11:10:24;;;;;;;0.55;0.55;;;8.50;99.90;;;;;;4431131;32;20056;-78
2021/03/23 11:12:54;;;;;;;0.75;0.75;;;8.60;99.90;;;;;;4427934;32;20058;-78
2021/03/23 11:15:20;;;;;;;0.40;0.40;;;8.70;99.90;;;;;;4430125;32;20094;-79
2021/03/23 11:17:48;;;;;;;0.40;0.40;;;8.80;99.90;;;;;;4431140;32;20066;-79
2021/03/23 11:20:23;;;;;;;0.40;0.40;;;8.90;99.90;;;;;;4429305;32;20098;-78
2021/03/23 11:22:50;;;;;;;0.40;0.40;;;8.90;99.90;;;;;;4429704;32;20107;-78
2021/03/23 11:25:21;;;;;;;0.40;0.40;;;8.80;99.90;;;;;;4423488;32;20400;-78
2021/03/23 11:27:49;;;;;;;0.40;0.40;;;8.90;99.90;;;;;;4422624;32;20070;-78
2021/03/23 11:30:15;;;;;;;0.30;0.30;;;9.00;99.90;;;;;;4424027;32;20062;-77
2021/03/23 11:32:41;;;;;;;0.40;0.40;;;9.00;99.90;;;;;;4424136;32;20182;-77
2021/03/23 11:35:08;;;;;;;0.40;0.40;;;9.00;99.90;;;;;;4424225;32;20424;-77
2021/03/23 11:37:34;;;;;;;0.30;0.30;;;9.00;99.90;;;;;;4423435;32;20053;-77
2021/03/23 11:39:59;;;;;;;0.40;0.40;;;9.10;99.90;;;;;;4422694;32;20077;-77
2021/03/23 11:42:35;;;;;;;0.30;0.30;;;9.10;99.90;;;;;;4423688;32;20069;-78
2021/03/23 11:45:06;;;;;;;0.40;0.40;;;9.10;99.90;;;;;;4426210;32;20486;-78
2021/03/23 11:47:43;;;;;;;0.47;0.47;;;9.00;99.90;;;;;;4423581;32;20077;-77
2021/03/23 11:50:13;;;;;;;0.50;0.50;;;9.00;99.90;;;;;;4433466;32;20061;-78
2021/03/23 11:52:40;;;;;;;0.30;0.30;;;8.90;99.90;;;;;;4428324;32;20064;-78
2021/03/23 11:55:10;;;;;;;0.37;0.37;;;9.00;99.90;;;;;;4427146;32;20082;-78
2021/03/23 11:57:36;;;;;;;0.40;0.40;;;9.00;99.90;;;;;;4423238;32;20123;-77
2021/03/23 12:00:05;;;;;;;0.40;0.40;;;9.00;99.90;;;;;;4425241;32;20518;-77
2021/03/23 12:02:30;;;;;;;0.30;0.30;;;8.80;99.90;;;;;;4424526;32;20069;-78
2021/03/23 12:04:56;;;;;;;0.40;0.40;;;8.80;99.90;;;;;;4426978;32;20098;-77
2021/03/23 12:08:02;;;;;;;0.95;0.68;;;8.70;99.90;;;;;;4420124;32;20077;-77
2021/03/23 12:10:39;;;;;;;0.30;0.30;;;8.60;99.90;;;;;;4416403;32;20062;-78
2021/03/23 12:13:17;;;;;;;0.50;0.50;;;8.60;99.90;;;;;;4433814;32;20074;-78
2021/03/23 12:15:51;;;;;;;0.40;0.40;;;8.50;99.90;;;;;;4438420;32;20073;-78
2021/03/23 12:18:19;;;;;;;0.30;0.30;;;8.50;99.90;;;;;;4440043;32;20061;-78
2021/03/23 12:20:53;;;;;;;0.35;0.35;;;8.40;99.90;;;;;;4443706;32;20126;-78
2021/03/23 12:23:19;;;;;;;0.37;0.37;;;8.30;99.90;;;;;;4441627;32;20186;-78
2021/03/23 12:25:45;;;;;;;0.70;0.70;;;8.40;99.90;;;;;;4448645;32;20061;-77
2021/03/23 12:28:10;;;;;;;0.88;0.77;;;8.50;99.90;;;;;;4439608;32;20689;-78
2021/03/23 12:30:36;;;;;;;0.40;0.40;;;8.50;99.90;;;;;;4441273;32;20354;-77
2021/03/23 12:33:01;;;;;;;0.95;0.88;;;8.30;99.90;;;;;;4442834;32;20080;-77
2021/03/23 12:35:29;;;;;;;0.55;0.55;;;8.30;99.90;;;;;;4439560;32;20077;-77
2021/03/23 12:37:57;;;;;;;0.40;0.40;;;8.20;99.90;;;;;;4438462;32;20232;-77
2021/03/23 12:40:25;;;;;;;0.40;0.40;;;8.20;99.90;;;;;;4442414;32;20066;-78
2021/03/23 12:42:51;;;;;;;0.40;0.40;;;8.40;99.90;;;;;;4444822;32;20137;-78
2021/03/23 12:45:22;;;;;;;0.60;0.60;;;8.50;99.90;;;;;;4446055;32;20053;-78
2021/03/23 12:47:48;;;;;;;0.55;0.55;;;8.90;99.90;;;;;;4438356;32;20143;-79
2021/03/23 12:50:25;;;;;;;0.90;0.60;;;9.00;99.90;;;;;;4446098;32;20065;-78
2021/03/23 12:52:53;;;;;;;0.40;0.40;;;9.30;99.90;;;;;;4445108;32;20076;-78
2021/03/23 12:55:22;;;;;;;0.30;0.30;;;9.50;99.90;;;;;;4446713;32;20068;-79
2021/03/23 12:57:52;;;;;;;0.40;0.40;;;9.40;99.90;;;;;;4445257;32;20061;-79
2021/03/23 13:00:26;;;;;;;0.43;0.43;;;9.30;99.90;;;;;;4444822;32;20081;-81
2021/03/23 13:02:53;;;;;;;0.50;0.50;;;9.10;99.90;;;;;;4445935;32;20086;-78
2021/03/23 13:05:20;;;;;;;0.43;0.43;;;9.10;99.90;;;;;;4442742;32;20158;-76
2021/03/23 13:07:54;;;;;;;0.60;0.60;;;8.80;99.90;;;;;;4443709;32;20407;-79
2021/03/23 13:10:41;;;;;;;0.50;0.50;;;8.70;99.90;;;;;;4440681;32;20104;-79
2021/03/23 13:13:16;;;;;;;1.48;0.80;;;8.70;99.90;;;;;;4423019;32;20069;-79
2021/03/23 13:15:41;;;;;;;0.50;0.50;;;8.60;99.90;;;;;;4441169;32;20068;-79
2021/03/23 13:18:13;;;;;;;2.72;1.00;;;8.50;99.90;;;;;;4441654;32;20128;-79
2021/03/23 13:20:39;;;;;;;0.40;0.40;;;8.60;99.90;;;;;;4439726;32;20151;-78
2021/03/23 13:23:06;;;;;;;0.37;0.37;;;8.70;99.90;;;;;;4441539;32;20065;-80
2021/03/23 13:25:38;;;;;;;0.60;0.60;;;8.70;99.90;;;;;;4440749;32;20076;-79
2021/03/23 13:28:20;;;;;;;0.70;0.70;;;8.60;99.90;;;;;;4441746;32;20134;-79